Terminal Aerodrome Forecast
Issued by NWS Wichita, KS

Home | Current Version | Previous Version | Text Only | Print | Product List | Glossary On
Versions: 1 2 3 4 5 6 7 8 9 10 11 12 13
882
FTUS43 KICT 181720
TAFICT
TAF
KICT 181720Z 1818/1918 19016G23KT P6SM FEW250
     FM190000 17006KT P6SM FEW200
     FM191600 18015KT P6SM FEW250=

USA.gov is the U.S. government's official web portal to all federal, state and local government web resources and services.